This is the latest recevied weather packets stored in our database for station/object OE6JVE-13. If no packets are shown the sender has not sent any weather packets the latest 10 day(s).
| Time | Temp. | Humidity | Pressure | Rain* | Wind** | Luminosity | Snow |
|---|---|---|---|---|---|---|---|
| 1788344455 | 25.56° C | 58% | 1013 hPa | 0.25 mm | - | - | - |
| 1788343896 | 25° C | 60% | 1013.1 hPa | 0 mm | - | - | - |
| 1788343284 | 24.44° C | 62% | 1013.4 hPa | 0 mm | - | - | - |
| 1788342019 | 23.89° C | 64% | 1013.9 hPa | 0 mm | - | - | - |
| 1788341426 | 23.33° C | 66% | 1013.8 hPa | 0 mm | - | - | - |
| 1788340835 | 22.78° C | 69% | 1014.1 hPa | 0 mm | - | - | - |
| 1788340425 | 22.22° C | 77% | 1014.1 hPa | 0 mm | - | - | - |
| 1788339655 | 20.56° C | 83% | 1014.1 hPa | 0 mm | - | - | - |
| 1788339058 | 20° C | 85% | 1014.2 hPa | 0 mm | - | - | - |
| 1788338466 | 20° C | 89% | 1014.3 hPa | 0 mm | - | - | - |
| 1788337874 | 19.44° C | 91% | 1014.3 hPa | 0 mm | - | - | - |
| 1788337216 | 18.89° C | 93% | 1014.4 hPa | 0 mm | - | - | - |
| 1788336624 | 18.89° C | 93% | 1014.5 hPa | 0 mm | - | - | - |
| 1788335520 | 18.33° C | 98% | 1014.4 hPa | 0 mm | - | - | - |
| 1788334848 | 17.78° C | 99% | 1014.4 hPa | 0 mm | - | - | - |
| 1788334256 | 17.78° C | 99% | 1014.5 hPa | 0 mm | - | - | - |
| 1788333663 | 17.22° C | 99% | 1014.4 hPa | 0 mm | - | - | - |
| 1788333071 | 17.22° C | 99% | 1014.4 hPa | 0 mm | - | - | - |
| 1788332480 | 16.67° C | 99% | 1014.5 hPa | 0 mm | - | - | - |
| 1788331821 | 16.11° C | 99% | 1014.4 hPa | 0 mm | - | - | - |
| 1788331229 | 16.11° C | 99% | 1014.2 hPa | 0 mm | - | - | - |
| 1788330660 | 16.11° C | 99% | 1014.4 hPa | 0 mm | - | - | - |
| 1788330046 | 16.11° C | 99% | 1014.4 hPa | 0 mm | - | - | - |
| 1788329454 | 15.56° C | 99% | 1014.4 hPa | 0 mm | - | - | - |
| 1788328861 | 15.56° C | 99% | 1014.4 hPa | 0 mm | - | - | - |
* Rain latest hour (hover to see other rain measurements)
** Current wind speed in m/s (hover to see current wind gust speed)